Time;durP1;ratioP1;P1;durP2;ratioP2;P2;SDS_P1;SDS_P2;PMS_P1;PMS_P2;Temp;Humidity;BMP_temperature;BMP_pressure;BME280_temperature;BME280_humidity;BME280_pressure;Samples;Min_cycle;Max_cycle;Signal;HPM_P1;HPM_P2
2022/04/09 00:01:56;;;;;;;1.45;1.35;;;7.10;67.30;;;-142.21;100.00;112049.66;5052195;28;20194;-73
2022/04/09 00:04:23;;;;;;;1.08;0.98;;;7.10;67.30;;;-142.21;100.00;112049.66;5054042;28;20226;-72
2022/04/09 00:06:50;;;;;;;1.38;1.27;;;7.10;67.20;;;-142.21;100.00;112049.66;5052890;28;20202;-72
2022/04/09 00:09:18;;;;;;;1.48;1.38;;;7.10;67.00;;;-142.21;100.00;112049.66;5054332;28;20198;-73
2022/04/09 00:11:45;;;;;;;1.88;1.55;;;7.00;67.10;;;-142.21;100.00;112049.66;5068218;28;20255;-72
2022/04/09 00:14:13;;;;;;;1.33;1.27;;;7.00;67.30;;;-142.21;100.00;112049.66;5050278;28;20198;-72
2022/04/09 00:16:40;;;;;;;1.30;1.20;;;7.00;68.50;;;-142.21;100.00;112049.66;5066781;28;20209;-72
2022/04/09 00:19:08;;;;;;;1.58;1.48;;;7.00;67.90;;;-142.21;100.00;112049.66;5063542;28;20213;-72
2022/04/09 00:21:36;;;;;;;1.00;1.00;;;6.90;67.80;;;-142.21;100.00;112049.66;5063531;28;20217;-72
2022/04/09 00:24:03;;;;;;;1.33;1.23;;;7.00;68.00;;;-142.21;100.00;112049.66;5055536;28;20205;-73
2022/04/09 00:26:32;;;;;;;1.10;1.00;;;7.00;68.20;;;-142.21;100.00;112049.66;5062670;28;20208;-72
2022/04/09 00:28:59;;;;;;;1.17;1.10;;;6.90;68.00;;;-142.21;100.00;112049.66;5061133;28;20251;-72
2022/04/09 00:31:26;;;;;;;1.35;1.25;;;6.90;68.40;;;-142.21;100.00;112049.66;5051473;28;20221;-72
2022/04/09 00:33:53;;;;;;;1.48;1.38;;;6.80;68.30;;;-142.21;100.00;112049.66;5061729;28;20293;-72
2022/04/09 00:36:20;;;;;;;1.70;1.60;;;6.70;68.50;;;-142.21;100.00;112049.66;5054559;28;20193;-72
2022/04/09 00:38:48;;;;;;;1.50;1.40;;;6.70;68.80;;;-142.21;100.00;112049.66;5050634;28;20213;-73
2022/04/09 00:41:15;;;;;;;1.55;1.45;;;6.70;69.10;;;-142.21;100.00;112049.66;5064420;28;20205;-73
2022/04/09 00:43:44;;;;;;;1.75;1.55;;;6.60;69.40;;;-142.21;100.00;112049.66;5059505;28;20233;-73
2022/04/09 00:46:14;;;;;;;1.50;1.40;;;6.50;69.80;;;-142.21;100.00;112049.66;5055039;28;20199;-73
2022/04/09 00:48:44;;;;;;;1.90;1.70;;;6.50;70.00;;;-142.21;100.00;112049.66;5060083;28;20680;-73
2022/04/09 00:51:11;;;;;;;1.40;1.30;;;6.60;70.00;;;-142.21;100.00;112049.66;5058171;28;20198;-74
2022/04/09 00:53:41;;;;;;;1.95;1.65;;;6.60;69.90;;;-142.21;100.00;112049.66;5051452;28;20226;-73
2022/04/09 00:56:15;;;;;;;1.70;1.60;;;6.70;69.50;;;-142.21;100.00;112049.66;5052041;28;20712;-72
2022/04/09 00:58:54;;;;;;;1.60;1.42;;;6.60;69.30;;;-142.21;100.00;112049.66;5061832;28;20251;-73
2022/04/09 01:01:23;;;;;;;1.92;1.75;;;6.60;69.60;;;-142.21;100.00;112049.66;5050209;28;20642;-73
2022/04/09 01:03:52;;;;;;;3.33;2.22;;;6.60;69.30;;;-142.21;100.00;112049.66;5057082;28;20289;-73
2022/04/09 01:06:19;;;;;;;2.80;2.40;;;6.60;70.00;;;-142.21;100.00;112049.66;5059322;28;20198;-73
2022/04/09 01:08:47;;;;;;;2.67;2.42;;;6.50;70.70;;;-142.21;100.00;112049.66;5053040;28;20201;-73
2022/04/09 01:11:15;;;;;;;2.63;2.42;;;6.60;70.10;;;-142.21;100.00;112049.66;5052625;28;20201;-73
2022/04/09 01:13:45;;;;;;;3.08;2.25;;;6.60;70.10;;;-142.21;100.00;112049.66;5051429;28;20567;-73
2022/04/09 01:16:12;;;;;;;2.75;2.42;;;6.60;70.10;;;-142.21;100.00;112049.66;5055060;28;20206;-74
2022/04/09 01:18:41;;;;;;;2.85;2.28;;;6.50;69.90;;;-142.21;100.00;112049.66;5052654;28;20712;-72
2022/04/09 01:21:08;;;;;;;2.63;2.42;;;6.50;69.90;;;-142.21;100.00;112049.66;5052395;28;20244;-72
2022/04/09 01:23:37;;;;;;;2.90;2.60;;;6.40;69.90;;;-142.21;100.00;112049.66;5058117;28;20203;-72
2022/04/09 01:26:06;;;;;;;2.70;2.50;;;6.40;69.90;;;-142.21;100.00;112049.66;5043890;28;20249;-73
2022/04/09 01:28:35;;;;;;;2.83;2.53;;;6.30;70.60;;;-142.21;100.00;112049.66;5048776;28;20190;-73
2022/04/09 01:31:02;;;;;;;2.70;2.50;;;6.30;70.70;;;-142.21;100.00;112049.66;5062023;28;20227;-73
2022/04/09 01:33:29;;;;;;;3.10;2.80;;;6.30;71.20;;;-142.21;100.00;112049.66;5063130;28;20308;-72
2022/04/09 01:35:56;;;;;;;2.60;2.40;;;6.40;72.00;;;-142.21;100.00;112049.66;5053449;28;20193;-73
2022/04/09 01:38:23;;;;;;;3.05;2.47;;;6.30;71.20;;;-142.21;100.00;112049.66;5056457;28;20296;-73
2022/04/09 01:40:53;;;;;;;2.55;2.35;;;6.40;72.10;;;-142.21;100.00;112049.66;5066253;28;20244;-73
2022/04/09 01:43:21;;;;;;;3.00;2.45;;;6.50;70.90;;;-142.21;100.00;112049.66;5051857;28;20572;-72
2022/04/09 01:45:49;;;;;;;3.25;2.47;;;6.50;70.70;;;-142.21;100.00;112049.66;5051724;28;20226;-72
2022/04/09 01:48:16;;;;;;;2.25;2.05;;;6.50;70.60;;;-142.21;100.00;112049.66;5052355;28;20198;-72
2022/04/09 01:50:43;;;;;;;2.58;2.25;;;6.50;70.20;;;-142.21;100.00;112049.66;5056506;28;20202;-72
2022/04/09 01:53:10;;;;;;;2.10;1.90;;;6.50;70.40;;;-142.21;100.00;112049.66;5052945;28;20229;-73
2022/04/09 01:55:38;;;;;;;2.15;1.83;;;6.50;70.90;;;-142.21;100.00;112049.66;5051350;28;20202;-73
2022/04/09 01:58:07;;;;;;;1.50;1.40;;;6.30;70.80;;;-142.21;100.00;112049.66;5050433;28;20209;-73
2022/04/09 02:00:34;;;;;;;1.73;1.63;;;6.30;71.10;;;-142.21;100.00;112049.66;5057747;28;20197;-73
2022/04/09 02:03:01;;;;;;;1.40;1.30;;;6.40;71.20;;;-142.21;100.00;112049.66;5055439;28;20196;-73
2022/04/09 02:05:28;;;;;;;1.65;1.55;;;6.30;71.20;;;-142.21;100.00;112049.66;5051886;28;20288;-73
2022/04/09 02:07:56;;;;;;;1.40;1.30;;;6.30;71.50;;;-142.21;100.00;112049.66;5054090;28;20293;-73
2022/04/09 02:10:23;;;;;;;1.67;1.58;;;6.30;71.60;;;-142.21;100.00;112049.66;5057802;28;20529;-72
2022/04/09 02:12:50;;;;;;;2.00;1.80;;;6.30;71.60;;;-142.21;100.00;112049.66;5064293;28;20261;-73
2022/04/09 02:15:21;;;;;;;2.22;1.90;;;6.40;71.90;;;-142.21;100.00;112049.66;5053896;28;20205;-73
2022/04/09 02:17:48;;;;;;;2.10;1.73;;;6.40;72.80;;;-142.21;100.00;112049.66;5044642;28;20202;-72
2022/04/09 02:20:16;;;;;;;2.08;1.88;;;6.30;72.00;;;-142.21;100.00;112049.66;5058482;28;20658;-73
2022/04/09 02:22:45;;;;;;;2.17;1.98;;;6.40;72.30;;;-142.21;100.00;112049.66;5058135;28;20208;-72
2022/04/09 02:25:16;;;;;;;1.85;1.65;;;6.40;72.00;;;-142.21;100.00;112049.66;5054917;28;20206;-72
2022/04/09 02:27:43;;;;;;;2.45;2.00;;;6.40;71.80;;;-142.21;100.00;112049.66;5054389;28;20286;-73
2022/04/09 02:30:12;;;;;;;2.20;1.65;;;6.40;71.70;;;-142.21;100.00;112049.66;5054097;28;20209;-73
2022/04/09 02:32:46;;;;;;;1.77;1.65;;;6.40;71.60;;;-142.21;100.00;112049.66;5054354;28;20310;-73
2022/04/09 02:35:14;;;;;;;2.45;1.85;;;6.50;72.20;;;-142.21;100.00;112049.66;5060011;28;20197;-74
2022/04/09 02:37:41;;;;;;;2.30;1.98;;;6.50;71.90;;;-142.21;100.00;112049.66;5054133;28;20208;-73
2022/04/09 02:40:10;;;;;;;1.75;1.65;;;6.50;72.10;;;-142.21;100.00;112049.66;5062460;28;20204;-73
2022/04/09 02:42:38;;;;;;;2.15;1.95;;;6.50;72.30;;;-142.21;100.00;112049.66;5056917;28;20208;-73
2022/04/09 02:45:07;;;;;;;2.58;2.20;;;6.50;72.00;;;-142.21;100.00;112049.66;5054436;28;20288;-73
2022/04/09 02:47:35;;;;;;;2.38;1.73;;;6.50;72.10;;;-142.21;100.00;112049.66;5034099;28;20267;-73
2022/04/09 02:50:06;;;;;;;2.42;1.70;;;6.40;72.10;;;-142.21;100.00;112049.66;5053895;28;20689;-73
2022/04/09 02:52:34;;;;;;;2.30;2.10;;;6.50;72.20;;;-142.21;100.00;112049.66;5055814;28;20217;-73
2022/04/09 02:55:02;;;;;;;2.08;1.88;;;6.50;72.40;;;-142.21;100.00;112049.66;5049830;28;20202;-73
2022/04/09 02:57:29;;;;;;;2.75;2.15;;;6.50;72.10;;;-142.21;100.00;112049.66;5054440;28;20202;-73
2022/04/09 02:59:56;;;;;;;1.98;1.85;;;6.50;72.10;;;-142.21;100.00;112049.66;5053732;28;20212;-74
2022/04/09 03:02:24;;;;;;;3.55;2.33;;;6.40;72.10;;;-142.21;100.00;112049.66;5054844;28;20190;-74
2022/04/09 03:04:53;;;;;;;2.20;2.00;;;6.50;72.40;;;-142.21;100.00;112049.66;5052697;28;20201;-74
2022/04/09 03:07:23;;;;;;;2.55;2.33;;;6.50;72.00;;;-142.21;100.00;112049.66;5053790;28;20202;-74
2022/04/09 03:09:50;;;;;;;2.83;2.53;;;6.50;72.20;;;-142.21;100.00;112049.66;5045977;28;20207;-74
2022/04/09 03:12:17;;;;;;;3.75;2.60;;;6.50;72.30;;;-142.21;100.00;112049.66;5047509;28;20597;-74
2022/04/09 03:14:46;;;;;;;2.80;2.58;;;6.50;72.50;;;-142.21;100.00;112049.66;5046592;28;20206;-74
2022/04/09 03:17:14;;;;;;;3.15;2.60;;;6.50;72.70;;;-142.21;100.00;112049.66;5053270;28;20205;-74
2022/04/09 03:19:41;;;;;;;2.85;2.55;;;6.60;72.60;;;-142.21;100.00;112049.66;5068827;28;20266;-74
2022/04/09 03:22:08;;;;;;;2.67;2.47;;;6.60;72.10;;;-142.21;100.00;112049.66;5064110;28;20253;-75
2022/04/09 03:24:37;;;;;;;2.67;2.45;;;6.60;71.80;;;-142.21;100.00;112049.66;5047670;28;20219;-74
2022/04/09 03:27:04;;;;;;;3.05;2.75;;;6.50;72.10;;;-142.21;100.00;112049.66;5051533;28;20202;-74
2022/04/09 03:29:32;;;;;;;2.83;2.53;;;6.40;71.80;;;-142.21;100.00;112049.66;5050245;28;20202;-75
2022/04/09 03:32:01;;;;;;;3.55;2.78;;;6.40;72.50;;;-142.21;100.00;112049.66;5038390;28;20304;-75
2022/04/09 03:34:29;;;;;;;3.70;2.80;;;6.40;72.40;;;-142.21;100.00;112049.66;5036124;28;20223;-75
2022/04/09 03:36:57;;;;;;;2.97;2.67;;;6.40;72.50;;;-142.21;100.00;112049.66;5040562;28;20206;-75
2022/04/09 03:39:24;;;;;;;4.00;3.10;;;6.40;72.50;;;-142.21;100.00;112049.66;5051798;28;20240;-75
2022/04/09 03:41:52;;;;;;;3.10;2.78;;;6.30;73.30;;;-142.21;100.00;112049.66;5053392;28;20209;-74
2022/04/09 03:44:19;;;;;;;3.85;2.83;;;6.30;73.10;;;-142.21;100.00;112049.66;5051533;28;20208;-74
2022/04/09 03:46:46;;;;;;;3.75;2.97;;;6.30;72.80;;;-142.21;100.00;112049.66;5033175;28;20238;-74
2022/04/09 03:49:15;;;;;;;6.25;3.53;;;6.30;72.70;;;-142.21;100.00;112049.66;5050218;28;20285;-74
2022/04/09 03:51:42;;;;;;;3.97;3.50;;;6.30;72.80;;;-142.21;100.00;112049.66;5051939;28;20285;-73
2022/04/09 03:54:09;;;;;;;4.32;3.35;;;6.30;72.90;;;-142.21;100.00;112049.66;5052258;28;20221;-74
2022/04/09 03:56:40;;;;;;;5.50;3.63;;;6.30;73.30;;;-142.21;100.00;112049.66;5041896;28;20293;-74
2022/04/09 03:59:08;;;;;;;3.92;3.22;;;6.30;73.40;;;-142.21;100.00;112049.66;5044285;28;20190;-74
2022/04/09 04:01:35;;;;;;;4.63;3.80;;;6.30;73.30;;;-142.21;100.00;112049.66;5051892;28;20288;-72
2022/04/09 04:04:03;;;;;;;4.80;3.80;;;6.30;73.70;;;-142.21;100.00;112049.66;5051507;28;20719;-73
2022/04/09 04:06:30;;;;;;;4.70;3.97;;;6.40;73.40;;;-142.21;100.00;112049.66;5048509;28;20284;-72
2022/04/09 04:08:57;;;;;;;5.38;4.20;;;6.40;73.00;;;-142.21;100.00;112049.66;5039451;28;20203;-72
2022/04/09 04:11:25;;;;;;;4.70;3.75;;;6.30;73.40;;;-142.21;100.00;112049.66;5046390;28;20236;-73
2022/04/09 04:13:52;;;;;;;5.90;4.65;;;6.30;73.10;;;-142.21;100.00;112049.66;5052345;28;20705;-73
2022/04/09 04:16:21;;;;;;;4.90;3.83;;;6.30;73.10;;;-142.21;100.00;112049.66;5051209;28;20293;-72
2022/04/09 04:18:48;;;;;;;5.57;4.35;;;6.30;73.20;;;-142.21;100.00;112049.66;5064868;28;20658;-72
2022/04/09 04:21:15;;;;;;;5.15;4.13;;;6.30;73.30;;;-142.21;100.00;112049.66;5054230;28;20201;-72
2022/04/09 04:23:42;;;;;;;5.75;4.47;;;6.30;73.20;;;-142.21;100.00;112049.66;5052858;28;20201;-72
2022/04/09 04:26:09;;;;;;;6.40;5.43;;;6.20;73.20;;;-142.21;100.00;112049.66;5063967;28;20209;-72
2022/04/09 04:28:36;;;;;;;5.88;4.55;;;6.20;73.40;;;-142.21;100.00;112049.66;5056232;28;20201;-73
2022/04/09 04:31:04;;;;;;;6.82;5.10;;;6.30;73.50;;;-142.21;100.00;112049.66;5051912;28;20213;-72
2022/04/09 04:33:33;;;;;;;5.93;4.80;;;6.20;73.90;;;-142.21;100.00;112049.66;5058078;28;20777;-73
2022/04/09 04:36:00;;;;;;;5.97;4.90;;;6.20;73.70;;;-142.21;100.00;112049.66;5062654;28;20539;-73
2022/04/09 04:38:27;;;;;;;9.07;4.97;;;6.30;73.80;;;-142.21;100.00;112049.66;5052409;28;20607;-73
2022/04/09 04:40:55;;;;;;;7.97;5.70;;;6.30;73.80;;;-142.21;100.00;112049.66;5051952;28;20673;-73
2022/04/09 04:43:22;;;;;;;8.48;5.80;;;6.30;74.00;;;-142.21;100.00;112049.66;5052095;28;20194;-73
2022/04/09 04:45:49;;;;;;;7.18;5.18;;;6.30;73.90;;;-142.21;100.00;112049.66;5062507;28;20301;-72
2022/04/09 04:48:17;;;;;;;6.82;5.53;;;6.30;73.80;;;-142.21;100.00;112049.66;5064767;28;20209;-73
2022/04/09 04:50:45;;;;;;;6.93;5.00;;;6.40;73.90;;;-142.21;100.00;112049.66;5064988;28;20646;-74
2022/04/09 04:53:12;;;;;;;7.60;5.57;;;6.40;74.00;;;-142.21;100.00;112049.66;5059091;28;20225;-73
2022/04/09 04:55:39;;;;;;;8.27;5.68;;;6.40;73.60;;;-142.21;100.00;112049.66;5052563;28;20225;-73
2022/04/09 04:58:07;;;;;;;7.32;5.85;;;6.40;73.80;;;-142.21;100.00;112049.66;5051263;28;20766;-73
2022/04/09 05:00:34;;;;;;;6.03;4.88;;;6.30;73.60;;;-142.21;100.00;112049.66;5051529;28;20280;-73
2022/04/09 05:03:04;;;;;;;7.40;5.63;;;6.30;74.00;;;-142.21;100.00;112049.66;5050753;28;20295;-74
2022/04/09 05:05:31;;;;;;;7.75;5.38;;;6.30;74.30;;;-142.21;100.00;112049.66;5053834;28;20202;-74
2022/04/09 05:08:00;;;;;;;6.80;5.70;;;6.30;74.10;;;-142.21;100.00;112049.66;5052517;28;20294;-72
2022/04/09 05:10:27;;;;;;;8.27;6.38;;;6.30;74.00;;;-142.21;100.00;112049.66;5053420;28;20304;-73
2022/04/09 05:12:55;;;;;;;8.35;6.22;;;6.30;73.90;;;-142.21;100.00;112049.66;5051785;28;20237;-73
2022/04/09 05:15:22;;;;;;;9.05;6.60;;;6.20;74.40;;;-142.21;100.00;112049.66;5055538;28;20206;-73
2022/04/09 05:17:49;;;;;;;7.57;6.25;;;6.30;74.20;;;-142.21;100.00;112049.66;5052534;28;20212;-73
2022/04/09 05:20:17;;;;;;;8.60;6.60;;;6.40;73.90;;;-142.21;100.00;112049.66;5058302;28;20301;-73
2022/04/09 05:22:47;;;;;;;9.60;6.75;;;6.40;73.70;;;-142.21;100.00;112049.66;5055012;28;20205;-73
2022/04/09 05:25:19;;;;;;;7.88;6.65;;;6.40;73.70;;;-142.21;100.00;112049.66;5067211;28;20205;-73
2022/04/09 05:27:47;;;;;;;9.50;6.75;;;6.40;73.50;;;-142.21;100.00;112049.66;5053426;28;20226;-73
2022/04/09 05:30:14;;;;;;;9.52;6.93;;;6.40;73.80;;;-142.21;100.00;112049.66;5052540;28;20285;-73
2022/04/09 05:32:42;;;;;;;8.93;6.95;;;6.40;73.80;;;-142.21;100.00;112049.66;5050569;28;20225;-71
2022/04/09 05:35:12;;;;;;;9.93;7.50;;;6.40;73.80;;;-142.21;100.00;112049.66;5051534;28;20218;-73
2022/04/09 05:37:45;;;;;;;9.13;6.70;;;6.40;74.00;;;-142.21;100.00;112049.66;5057259;28;20205;-74
2022/04/09 05:40:13;;;;;;;11.77;7.53;;;6.40;74.50;;;-142.21;100.00;112049.66;5056855;28;20225;-72
2022/04/09 05:42:42;;;;;;;12.00;8.10;;;6.50;75.10;;;-142.21;100.00;112049.66;5058245;28;20303;-73
2022/04/09 05:45:10;;;;;;;10.82;7.57;;;6.50;74.80;;;-142.21;100.00;112049.66;5062596;28;20198;-72
2022/04/09 05:47:52;;;;;;;9.93;8.25;;;6.60;74.70;;;-142.21;100.00;112049.66;5050712;28;20201;-72
2022/04/09 05:50:19;;;;;;;13.10;7.68;;;6.60;74.40;;;-142.21;100.00;112049.66;5070143;28;20177;-73
2022/04/09 05:52:49;;;;;;;10.27;7.50;;;6.70;74.80;;;-142.21;100.00;112049.66;5076897;28;20241;-72
2022/04/09 05:58:42;;;;;;;9.25;7.32;;;6.80;73.80;;;-142.21;100.00;112049.66;4987023;28;20717;-73
2022/04/09 06:01:12;;;;;;;10.68;8.13;;;6.70;73.50;;;-142.21;100.00;112049.66;4984400;28;20615;-74
2022/04/09 06:03:42;;;;;;;13.13;8.00;;;6.90;73.80;;;-142.21;100.00;112049.66;4954471;28;20229;-74
2022/04/09 06:06:12;;;;;;;11.90;8.05;;;6.90;73.20;;;-142.21;100.00;112049.66;4972983;28;20244;-74
2022/04/09 06:08:53;;;;;;;13.05;8.10;;;6.90;73.20;;;-142.21;100.00;112049.66;4980927;28;20209;-73
2022/04/09 06:11:27;;;;;;;11.02;8.20;;;6.90;73.70;;;-142.21;100.00;112049.66;4979904;28;20736;-74
2022/04/09 06:14:03;;;;;;;10.60;7.80;;;7.00;74.10;;;-142.21;100.00;112049.66;4990940;28;20595;-75
2022/04/09 06:16:50;;;;;;;;;;;;;;;;;;;;;
2022/04/09 06:19:57;;;;;;;10.82;8.20;;;7.10;73.90;;;-142.21;100.00;112049.66;4983713;28;20205;-72
2022/04/09 06:22:24;;;;;;;12.45;8.23;;;7.20;73.60;;;-142.21;100.00;112049.66;4954040;28;20204;-71
2022/04/09 06:25:01;;;;;;;10.07;8.35;;;7.30;74.00;;;-142.21;100.00;112049.66;4992951;28;20563;-73
2022/04/09 06:27:39;;;;;;;12.35;8.77;;;7.30;74.40;;;-142.21;100.00;112049.66;5005888;28;20203;-73
2022/04/09 06:30:13;;;;;;;10.80;8.02;;;7.40;73.50;;;-142.21;100.00;112049.66;4947387;28;20199;-73
2022/04/09 06:36:11;;;;;;;12.90;8.63;;;7.60;73.30;;;-142.21;100.00;112049.66;4919017;29;20693;-73
2022/04/09 06:38:38;;;;;;;11.53;8.40;;;7.80;73.00;;;-142.21;100.00;112049.66;4958598;28;20207;-73
2022/04/09 06:41:35;;;;;;;9.87;8.17;;;7.90;72.70;;;-142.21;100.00;112049.66;4997464;28;20545;-74
2022/04/09 06:56:23;;;;;;;10.53;7.83;;;8.80;70.80;;;-142.21;100.00;112049.66;4867344;29;20523;-74
2022/04/09 06:58:52;;;;;;;10.63;7.87;;;9.00;70.10;;;-142.21;100.00;112049.66;5010499;28;20511;-74
2022/04/09 07:01:22;;;;;;;7.77;6.97;;;9.20;69.80;;;-142.21;100.00;112049.66;5063877;28;20445;-74
2022/04/09 07:03:54;;;;;;;10.07;7.80;;;9.30;69.20;;;-142.21;100.00;112049.66;5058206;28;20489;-74
2022/04/09 07:06:21;;;;;;;9.60;7.80;;;9.30;68.30;;;-142.21;100.00;112049.66;5070676;28;20440;-74
2022/04/09 07:08:48;;;;;;;11.17;7.70;;;9.20;68.80;;;-142.21;100.00;112049.66;5073704;28;21012;-73
2022/04/09 07:11:15;;;;;;;9.90;7.93;;;9.20;69.10;;;-142.21;100.00;112049.66;5062122;28;20463;-74
2022/04/09 07:13:42;;;;;;;11.00;8.27;;;9.20;68.70;;;-142.21;100.00;112049.66;5062164;28;20472;-74
2022/04/09 07:16:10;;;;;;;9.17;7.50;;;9.30;69.20;;;-142.21;100.00;112049.66;5062295;28;20994;-73
2022/04/09 07:18:37;;;;;;;11.37;7.70;;;9.30;68.60;;;-142.21;100.00;112049.66;5056436;28;20506;-74
2022/04/09 07:21:06;;;;;;;10.30;8.00;;;9.20;68.60;;;-142.21;100.00;112049.66;5062317;28;20483;-74
2022/04/09 07:23:33;;;;;;;9.83;7.90;;;9.20;68.90;;;-142.21;100.00;112049.66;5052941;28;20444;-74
2022/04/09 07:26:04;;;;;;;11.27;7.90;;;9.30;68.70;;;-142.21;100.00;112049.66;5059812;28;20444;-73
2022/04/09 07:28:31;;;;;;;12.40;7.93;;;9.40;68.90;;;-142.21;100.00;112049.66;5053593;28;20547;-73
2022/04/09 07:30:58;;;;;;;9.43;8.00;;;9.50;69.30;;;-142.21;100.00;112049.66;5053051;28;20456;-72
2022/04/09 07:33:28;;;;;;;11.00;8.57;;;9.70;69.00;;;-142.21;100.00;112049.66;5054122;28;20448;-73
2022/04/09 07:35:55;;;;;;;11.10;7.90;;;9.80;68.90;;;-142.21;100.00;112049.66;5054404;28;20467;-74
2022/04/09 07:38:24;;;;;;;12.80;7.80;;;10.00;67.40;;;-142.21;100.00;112049.66;5048802;28;20478;-74
2022/04/09 07:40:51;;;;;;;11.37;8.03;;;10.00;67.50;;;-142.21;100.00;112049.66;5052364;28;20506;-74
2022/04/09 07:43:19;;;;;;;8.43;7.53;;;10.10;67.50;;;-142.21;100.00;112049.66;5044416;28;20453;-74
2022/04/09 07:45:47;;;;;;;9.63;8.33;;;10.10;67.20;;;-142.21;100.00;112049.66;5050681;28;20524;-75
2022/04/09 07:48:14;;;;;;;9.20;7.07;;;10.10;67.10;;;-142.21;100.00;112049.66;5044073;28;20488;-75
2022/04/09 07:50:41;;;;;;;7.97;6.97;;;10.00;66.30;;;-142.21;100.00;112049.66;5052525;28;20539;-75
2022/04/09 07:53:09;;;;;;;9.90;7.43;;;10.00;66.70;;;-142.21;100.00;112049.66;5052679;28;20444;-75
2022/04/09 07:55:38;;;;;;;10.67;7.37;;;9.90;67.50;;;-142.21;100.00;112049.66;5051872;28;20480;-74
2022/04/09 07:58:08;;;;;;;10.10;7.33;;;9.90;67.30;;;-142.21;100.00;112049.66;5051619;28;20444;-75
2022/04/09 08:00:37;;;;;;;10.10;7.70;;;9.80;68.00;;;-142.21;100.00;112049.66;5051161;28;20487;-74
2022/04/09 08:03:04;;;;;;;10.90;7.63;;;9.80;68.40;;;-142.21;100.00;112049.66;5062260;28;20848;-75
2022/04/09 08:05:31;;;;;;;9.60;7.30;;;9.80;67.70;;;-142.21;100.00;112049.66;5044545;28;20445;-74
2022/04/09 08:08:00;;;;;;;8.27;6.90;;;9.80;67.50;;;-142.21;100.00;112049.66;5042379;28;20448;-74
2022/04/09 08:10:28;;;;;;;10.07;7.17;;;9.90;68.10;;;-142.21;100.00;112049.66;5053492;28;20456;-75
2022/04/09 08:12:57;;;;;;;9.23;7.00;;;10.00;67.50;;;-142.21;100.00;112049.66;5051995;28;20487;-75
2022/04/09 08:15:25;;;;;;;9.20;6.70;;;10.10;67.30;;;-142.21;100.00;112049.66;5052421;28;20553;-74
2022/04/09 08:17:54;;;;;;;8.00;6.50;;;10.30;65.70;;;-142.21;100.00;112049.66;5052159;28;20468;-73
2022/04/09 08:20:22;;;;;;;10.00;6.37;;;10.30;65.80;;;-142.21;100.00;112049.66;5053056;28;20453;-73
2022/04/09 08:22:49;;;;;;;11.00;6.70;;;10.40;66.30;;;-142.21;100.00;112049.66;5052823;28;20480;-75
2022/04/09 08:25:18;;;;;;;9.70;6.70;;;10.50;66.10;;;-142.21;100.00;112049.66;5053226;28;20443;-74
2022/04/09 08:27:49;;;;;;;9.07;6.83;;;10.50;65.50;;;-142.21;100.00;112049.66;5051856;28;20862;-74
2022/04/09 08:30:18;;;;;;;8.93;6.50;;;10.60;65.40;;;-142.21;100.00;112049.66;5053053;28;20441;-75
2022/04/09 08:32:45;;;;;;;8.83;6.83;;;10.80;65.60;;;-142.21;100.00;112049.66;5044387;28;20459;-74
2022/04/09 08:35:12;;;;;;;9.80;6.83;;;11.00;64.60;;;-142.21;100.00;112049.66;5050983;28;20584;-73
2022/04/09 08:37:41;;;;;;;7.33;5.27;;;11.10;64.10;;;-142.21;100.00;112049.66;5051485;28;20448;-74
2022/04/09 08:40:14;;;;;;;7.73;5.47;;;11.40;63.50;;;-142.21;100.00;112049.66;5051353;28;20444;-74
2022/04/09 08:42:43;;;;;;;7.33;5.30;;;11.50;63.60;;;-142.21;100.00;112049.66;5053797;28;20796;-74
2022/04/09 08:45:10;;;;;;;6.47;4.80;;;11.70;62.60;;;-142.21;100.00;112049.66;5051417;28;20448;-74
2022/04/09 08:47:43;;;;;;;6.50;4.73;;;11.60;61.50;;;-142.21;100.00;112049.66;5052143;28;20523;-74
2022/04/09 08:50:13;;;;;;;6.70;4.60;;;11.60;61.00;;;-142.21;100.00;112049.66;5051179;28;20498;-74
2022/04/09 08:52:42;;;;;;;6.87;4.93;;;11.80;61.10;;;-142.21;100.00;112049.66;5052778;28;20463;-74
2022/04/09 08:55:12;;;;;;;8.60;5.43;;;12.20;60.00;;;-142.21;100.00;112049.66;5051585;28;20933;-74
2022/04/09 08:57:40;;;;;;;6.33;4.17;;;13.00;59.50;;;-142.21;100.00;112049.66;5052348;28;20451;-75
2022/04/09 09:00:12;;;;;;;7.63;4.67;;;14.10;57.30;;;-142.21;100.00;112049.66;5051028;28;20876;-75
2022/04/09 09:02:51;;;;;;;6.27;4.40;;;15.10;56.40;;;-142.21;100.00;112049.66;5050636;28;20441;-74
2022/04/09 09:05:31;;;;;;;6.57;4.53;;;15.80;54.60;;;-142.21;100.00;112049.66;5050275;28;20448;-75
2022/04/09 09:07:58;;;;;;;7.57;4.33;;;16.20;53.70;;;-142.21;100.00;112049.66;5050543;28;20431;-75
2022/04/09 09:10:26;;;;;;;5.67;3.87;;;16.60;53.40;;;-142.21;100.00;112049.66;5051341;28;20444;-75
2022/04/09 09:13:04;;;;;;;5.17;3.80;;;17.20;51.20;;;-142.21;100.00;112049.66;5051464;28;20852;-75
2022/04/09 09:15:31;;;;;;;5.53;4.43;;;18.00;49.80;;;-142.21;96.71;112049.66;5050710;28;20537;-76
2022/04/09 09:18:01;;;;;;;5.50;4.23;;;17.80;50.00;;;-142.21;98.18;112049.66;5051599;28;20455;-76
2022/04/09 09:20:28;;;;;;;5.20;4.20;;;17.70;49.20;;;-142.21;98.04;112049.66;5050783;28;20462;-75
2022/04/09 09:22:55;;;;;;;5.87;4.23;;;18.40;50.00;;;-142.21;100.00;112049.66;5053454;28;20539;-76
2022/04/09 09:25:23;;;;;;;6.23;4.13;;;19.10;49.40;;;-142.21;98.82;112049.66;5061967;28;20292;-76
2022/04/09 09:27:58;;;;;;;5.03;3.73;;;20.20;48.90;;;-142.21;99.05;112049.66;5046325;28;20209;-76
2022/04/09 09:30:25;;;;;;;6.10;3.70;;;20.20;47.10;;;-142.21;90.59;112049.66;5047594;28;20560;-75
2022/04/09 09:33:15;;;;;;;4.33;3.50;;;20.00;44.90;;;-142.21;93.54;112049.66;5058313;28;20209;-76
2022/04/09 09:35:53;;;;;;;5.73;3.67;;;19.50;44.10;;;-142.21;93.81;112049.66;5068553;28;20264;-75
2022/04/09 09:38:23;;;;;;;3.87;3.03;;;19.30;44.70;;;-142.21;92.12;112049.66;5058783;28;20640;-75
2022/04/09 09:40:51;;;;;;;5.10;2.90;;;18.80;45.10;;;-142.21;90.20;112049.66;5053628;28;20207;-76
2022/04/09 09:43:21;;;;;;;4.80;2.70;;;18.30;45.20;;;-142.21;88.13;112049.66;5055285;28;20198;-74
2022/04/09 09:45:50;;;;;;;5.40;3.00;;;17.90;45.10;;;-142.21;92.20;112049.66;5054821;28;20229;-75
2022/04/09 09:48:24;;;;;;;6.03;3.73;;;17.50;46.60;;;-142.21;91.10;112049.66;5063255;28;20932;-76
2022/04/09 09:50:54;;;;;;;4.97;3.17;;;16.90;46.90;;;-142.21;89.83;112049.66;5055269;28;20531;-75
2022/04/09 09:53:29;;;;;;;5.00;3.10;;;16.40;47.70;;;-142.21;88.74;112049.66;5060492;28;20526;-75
2022/04/09 09:55:59;;;;;;;7.13;3.40;;;16.00;47.30;;;-142.21;86.40;112049.66;5060316;28;20478;-76
2022/04/09 09:58:28;;;;;;;7.10;3.07;;;15.60;47.70;;;-142.21;87.10;112049.66;5055260;28;20439;-75
2022/04/09 10:00:56;;;;;;;6.57;3.10;;;15.20;47.90;;;-142.21;87.28;112049.66;5053861;28;21022;-75
2022/04/09 10:03:27;;;;;;;6.40;3.00;;;15.20;48.20;;;-142.21;83.14;112049.66;5055254;28;20475;-75
2022/04/09 10:05:54;;;;;;;5.50;3.10;;;15.00;47.90;;;-142.21;86.51;112049.66;5055309;28;20507;-77
2022/04/09 10:08:23;;;;;;;3.53;2.77;;;14.50;49.20;;;-142.21;89.70;112049.66;5053475;28;20456;-76
2022/04/09 10:10:57;;;;;;;4.00;2.40;;;14.20;49.40;;;-142.21;84.54;112049.66;5054583;28;20452;-76
2022/04/09 10:13:26;;;;;;;4.33;2.90;;;13.80;49.30;;;-142.21;86.47;112049.66;5054142;28;20873;-75
2022/04/09 10:15:54;;;;;;;3.80;2.70;;;13.50;49.80;;;-142.21;86.42;112049.66;5054638;28;20578;-76
2022/04/09 10:18:23;;;;;;;4.97;2.27;;;13.50;50.60;;;-142.21;82.71;112049.66;5054065;28;20453;-75
2022/04/09 10:21:05;;;;;;;7.10;2.90;;;13.30;49.20;;;-142.21;86.16;112049.66;5054645;28;20448;-76
2022/04/09 10:23:34;;;;;;;4.73;3.07;;;13.20;50.60;;;-142.21;86.95;112049.66;5051257;28;20448;-75
2022/04/09 10:26:03;;;;;;;5.57;2.87;;;13.20;50.90;;;-142.21;88.43;112049.66;5054909;28;20535;-74
2022/04/09 10:28:32;;;;;;;4.83;2.70;;;13.10;51.50;;;-142.21;84.77;112049.66;5053875;28;20441;-76